createdAt,value
2022-12-18T00:03:17.345Z,-10.3
2022-12-18T00:08:24.555Z,-10.4
2022-12-18T00:13:31.815Z,-10.4
2022-12-18T00:18:38.509Z,-10.2
2022-12-18T00:23:45.713Z,-10.2
2022-12-18T00:28:52.888Z,-10.2
2022-12-18T00:34:00.093Z,-10.2
2022-12-18T00:39:07.286Z,-9.9
2022-12-18T00:44:14.478Z,-9.9
2022-12-18T00:49:21.680Z,-9.9
2022-12-18T00:54:28.869Z,-10
2022-12-18T00:59:36.074Z,-9.9
2022-12-18T01:04:43.326Z,-9.6
2022-12-18T01:09:50.477Z,-9.6
2022-12-18T01:14:57.653Z,-9.5
2022-12-18T01:20:04.866Z,-9.3
2022-12-18T01:25:11.618Z,-9.3
2022-12-18T01:30:18.819Z,-9.2
2022-12-18T01:35:25.999Z,-9.1
2022-12-18T01:40:33.198Z,-9
2022-12-18T01:45:40.409Z,-9
2022-12-18T01:50:47.597Z,-9
2022-12-18T01:55:54.797Z,-8.9
2022-12-18T02:01:01.978Z,-8.9
2022-12-18T02:06:09.200Z,-8.9
2022-12-18T02:11:16.371Z,-8.9
2022-12-18T02:16:23.571Z,-8.9
2022-12-18T02:21:30.764Z,-8.9
2022-12-18T02:26:38.000Z,-9
2022-12-18T02:31:44.725Z,-9
2022-12-18T02:36:51.928Z,-9
2022-12-18T02:41:59.125Z,-9
2022-12-18T02:47:06.327Z,-9
2022-12-18T02:52:13.500Z,-9
2022-12-18T02:57:20.707Z,-9
2022-12-18T03:02:27.897Z,-9.1
2022-12-18T03:07:35.096Z,-9.2
2022-12-18T03:12:42.301Z,-9.2
2022-12-18T03:17:49.491Z,-9.1
2022-12-18T03:22:56.690Z,-9.1
2022-12-18T03:28:03.875Z,-9.2
2022-12-18T03:33:11.097Z,-9.1
2022-12-18T03:38:17.841Z,-8.9
2022-12-18T03:43:25.018Z,-8.8
2022-12-18T03:48:32.239Z,-8.7
2022-12-18T03:53:39.420Z,-8.6
2022-12-18T03:58:46.617Z,-8.4
2022-12-18T04:03:53.826Z,-8.3
2022-12-18T04:09:01.037Z,-8.2
2022-12-18T04:14:08.207Z,-8.1
2022-12-18T04:19:15.386Z,-8
2022-12-18T04:24:22.595Z,-7.8
2022-12-18T04:29:29.776Z,-7.7
2022-12-18T04:34:36.965Z,-7.6
2022-12-18T04:39:44.174Z,-7.5
2022-12-18T04:44:50.990Z,-7.3
2022-12-18T04:49:58.123Z,-7.2
2022-12-18T04:55:05.318Z,-7.1
2022-12-18T05:00:12.499Z,-7
2022-12-18T05:05:19.698Z,-6.9
2022-12-18T05:10:26.457Z,-6.8
2022-12-18T05:15:33.661Z,-6.8
2022-12-18T05:20:40.848Z,-6.8
2022-12-18T05:25:48.050Z,-6.7
2022-12-18T05:30:55.246Z,-6.7
2022-12-18T05:36:02.453Z,-6.7
2022-12-18T05:41:09.647Z,-6.7
2022-12-18T05:46:16.828Z,-6.7
2022-12-18T05:51:24.046Z,-6.7
2022-12-18T05:56:31.219Z,-6.8
2022-12-18T06:01:38.412Z,-6.8
2022-12-18T06:06:45.601Z,-6.8
2022-12-18T06:11:52.792Z,-6.9
2022-12-18T06:16:59.551Z,-7
2022-12-18T06:22:06.741Z,-7.2
2022-12-18T06:27:13.955Z,-7.3
2022-12-18T06:32:21.149Z,-7.4
2022-12-18T06:37:28.371Z,-7.6
2022-12-18T06:42:35.519Z,-7.9
2022-12-18T06:47:42.724Z,-8.1
2022-12-18T06:52:49.919Z,-8.3
2022-12-18T06:57:57.110Z,-8.5
2022-12-18T07:03:04.351Z,-8.6
2022-12-18T07:08:11.551Z,-8.6
2022-12-18T07:13:18.741Z,-8.6
2022-12-18T07:18:25.947Z,-8.6
2022-12-18T07:23:32.693Z,-8.6
2022-12-18T07:28:39.926Z,-8.5
2022-12-18T07:33:47.097Z,-8.5
2022-12-18T07:38:54.337Z,-8.5
2022-12-18T07:44:01.554Z,-8.4
2022-12-18T07:49:08.721Z,-8.4
2022-12-18T07:54:15.923Z,-8.4
2022-12-18T07:59:23.100Z,-8.4
2022-12-18T08:04:30.316Z,-8.4
2022-12-18T08:09:37.520Z,-8.2
2022-12-18T08:14:44.702Z,-8.1
2022-12-18T08:19:51.891Z,-8.1
2022-12-18T08:24:59.091Z,-7.9
2022-12-18T08:30:05.842Z,-7.4
2022-12-18T08:35:13.037Z,-7.4
2022-12-18T08:40:20.241Z,-7.4
2022-12-18T08:45:27.429Z,-7.4
2022-12-18T08:50:34.637Z,-7.2
2022-12-18T08:55:41.825Z,-7.2
2022-12-18T09:00:49.062Z,-7
2022-12-18T09:05:56.223Z,-7
2022-12-18T09:11:03.413Z,-6.9
2022-12-18T09:16:10.600Z,-6.8
2022-12-18T09:21:17.811Z,-6.7
2022-12-18T09:26:25.027Z,-6.6
2022-12-18T09:31:32.228Z,-6.5
2022-12-18T09:36:38.963Z,-6.5
2022-12-18T09:41:46.212Z,-6.4
2022-12-18T10:07:22.108Z,-5.8
2022-12-18T10:32:58.092Z,-4.1
2022-12-18T10:58:33.699Z,-0.8
2022-12-18T11:24:09.284Z,-0.4
2022-12-18T11:49:44.892Z,-1.1
2022-12-18T12:15:20.817Z,-2
2022-12-18T13:32:08.304Z,-3.1
2022-12-18T13:57:43.931Z,-4.3
2022-12-18T14:23:19.479Z,-4.8
2022-12-18T14:33:33.503Z,-5
2022-12-18T15:40:06.647Z,-5.9
2022-12-18T16:05:42.267Z,-6
2022-12-18T16:10:49.456Z,-6.1
2022-12-18T16:31:17.868Z,-6.2
2022-12-18T17:48:05.448Z,-6.5
2022-12-18T18:13:41.067Z,-6.4
2022-12-18T18:23:55.100Z,-6.4
2022-12-18T19:56:04.252Z,-6
2022-12-18T20:21:39.913Z,-5.9
2022-12-18T20:47:15.477Z,-5.8
2022-12-18T22:04:03.048Z,-5.7
2022-12-18T22:29:38.633Z,-5.7
